Time;durP1;ratioP1;P1;durP2;ratioP2;P2;SDS_P1;SDS_P2;PMS_P1;PMS_P2;Temp;Humidity;BMP_temperature;BMP_pressure;BME280_temperature;BME280_humidity;BME280_pressure;Samples;Min_cycle;Max_cycle;Signal;HPM_P1;HPM_P2
2022/04/26 03:38:01;;;;;;;16.00;13.00;;;;;;;8.08;82.80;100146.59;87823;1280;81928;-68
2022/04/26 03:40:12;;;;;;;16.40;12.70;;;;;;;8.08;82.99;100149.85;87990;1281;99005;-69
2022/04/26 03:42:24;;;;;;;17.80;13.70;;;;;;;8.07;82.84;100156.02;87991;1281;87858;-71
2022/04/26 03:44:33;;;;;;;17.50;13.90;;;;;;;8.05;82.95;100154.98;87980;1281;96145;-61
2022/04/26 03:46:45;;;;;;;17.40;13.60;;;;;;;8.06;83.03;100155.95;87253;1281;996991;-60
2022/04/26 03:48:54;;;;;;;17.60;13.80;;;;;;;8.07;83.06;100157.17;87815;1283;81276;-71
2022/04/26 03:51:04;;;;;;;16.40;14.50;;;;;;;8.02;83.07;100161.79;87989;1281;99900;-70
2022/04/26 03:53:13;;;;;;;15.80;13.00;;;;;;;7.98;83.01;100162.10;87957;1281;87542;-68
2022/04/26 03:55:21;;;;;;;15.70;13.90;;;;;;;7.98;83.06;100163.21;87782;1282;95437;-70
2022/04/26 03:57:31;;;;;;;15.80;12.30;;;;;;;8.01;83.23;100163.42;87984;1281;80799;-70
2022/04/26 03:59:40;;;;;;;15.20;12.90;;;;;;;7.95;83.17;100166.20;87976;1280;81595;-60
2022/04/26 04:01:49;;;;;;;16.70;13.10;;;;;;;7.94;83.19;100168.67;87987;1281;99114;-60
2022/04/26 04:03:58;;;;;;;15.40;12.80;;;;;;;7.95;83.27;100173.61;87979;1281;89149;-60
2022/04/26 04:06:09;;;;;;;17.30;13.90;;;;;;;7.93;83.26;100174.71;87968;1281;93330;-60
2022/04/26 04:08:18;;;;;;;16.80;13.10;;;;;;;7.94;83.39;100169.98;87993;1280;80005;-70
2022/04/26 04:10:30;;;;;;;14.90;12.30;;;;;;;7.91;83.33;100174.73;87977;1281;83799;-71
2022/04/26 04:12:40;;;;;;;14.70;12.20;;;;;;;7.92;83.40;100174.80;87956;1281;99100;-70
2022/04/26 04:14:49;;;;;;;15.50;12.60;;;;;;;7.95;83.37;100177.38;87987;1280;89071;-59
2022/04/26 04:17:01;;;;;;;15.80;13.10;;;;;;;7.99;83.28;100177.27;87985;1281;94587;-61
2022/04/26 04:19:20;;;;;;;15.80;13.30;;;;;;;8.01;83.35;100181.19;87942;1281;81686;-71
2022/04/26 04:21:29;;;;;;;15.30;12.40;;;;;;;8.02;83.38;100183.15;87991;1281;81235;-61
2022/04/26 04:23:41;;;;;;;14.80;12.20;;;;;;;8.04;83.44;100183.63;87993;1281;99358;-62
2022/04/26 04:25:51;;;;;;;13.90;12.10;;;;;;;8.05;83.54;100190.05;88006;1281;87347;-61
2022/04/26 04:28:04;;;;;;;15.80;13.50;;;;;;;8.08;83.48;100192.16;87977;1281;95050;-61
2022/04/26 04:30:17;;;;;;;14.50;12.70;;;;;;;8.08;83.53;100191.27;87971;1281;82802;-61
2022/04/26 04:32:28;;;;;;;14.70;12.50;;;;;;;8.07;83.62;100199.10;87813;1283;82385;-61
2022/04/26 04:34:41;;;;;;;15.80;13.00;;;;;;;8.09;83.50;100198.67;87986;1281;98995;-60
2022/04/26 04:36:52;;;;;;;15.30;13.10;;;;;;;8.14;83.54;100201.70;87849;1284;90139;-62
2022/04/26 04:39:01;;;;;;;16.80;13.70;;;;;;;8.16;83.43;100202.19;87952;1281;93473;-71
2022/04/26 04:41:14;;;;;;;15.40;13.30;;;;;;;8.17;83.48;100206.86;87955;1281;80166;-72
2022/04/26 04:43:27;;;;;;;15.90;13.60;;;;;;;8.13;83.53;100210.52;87989;1281;80979;-72
2022/04/26 04:45:39;;;;;;;17.00;13.30;;;;;;;8.15;83.50;100214.98;87985;1281;100055;-62
2022/04/26 04:47:49;;;;;;;16.30;13.70;;;;;;;8.14;83.53;100217.95;87999;1281;87362;-62
2022/04/26 04:50:01;;;;;;;16.10;13.00;;;;;;;8.15;83.44;100221.50;87963;1281;95673;-62
2022/04/26 04:52:11;;;;;;;18.30;14.80;;;;;;;8.15;83.66;100223.29;87973;1280;82009;-61
2022/04/26 04:54:20;;;;;;;18.80;13.80;;;;;;;8.14;83.48;100224.40;87822;1284;83965;-60
2022/04/26 04:56:29;;;;;;;17.10;14.70;;;;;;;8.12;83.50;100229.52;87996;1281;99371;-62
2022/04/26 04:58:38;;;;;;;19.10;15.30;;;;;;;8.13;83.57;100228.38;87986;1281;88880;-73
2022/04/26 05:00:47;;;;;;;21.30;15.20;;;;;;;8.14;83.51;100229.80;87987;1281;94083;-77
2022/04/26 05:02:56;;;;;;;19.30;15.60;;;;;;;8.14;83.50;100234.70;87830;1283;79844;-74
2022/04/26 05:05:06;;;;;;;15.80;13.70;;;;;;;8.16;83.51;100230.47;87984;1281;82696;-74
2022/04/26 05:07:16;;;;;;;18.20;15.30;;;;;;;8.16;83.63;100231.17;87999;1281;98687;-70
2022/04/26 05:09:28;;;;;;;20.20;15.30;;;;;;;8.16;83.67;100231.61;87990;1281;89223;-60
2022/04/26 05:11:37;;;;;;;19.50;15.90;;;;;;;8.14;83.57;100234.50;87968;1281;95377;-59
2022/04/26 05:13:46;;;;;;;17.80;15.10;;;;;;;8.16;83.58;100237.52;87923;1281;80369;-61
2022/04/26 05:15:54;;;;;;;17.80;14.70;;;;;;;8.16;83.47;100241.30;87993;1281;79834;-59
2022/04/26 05:18:04;;;;;;;18.60;15.00;;;;;;;8.14;83.49;100237.60;87950;1281;100048;-59
2022/04/26 05:20:16;;;;;;;20.30;15.50;;;;;;;8.13;83.47;100241.84;87968;1281;87188;-59
2022/04/26 05:22:28;;;;;;;25.30;15.70;;;;;;;8.08;83.52;100242.54;88006;1281;94209;-60
2022/04/26 05:24:56;;;;;;;21.30;15.70;;;;;;;8.07;83.42;100243.91;87944;1281;81163;-60
2022/04/26 05:27:09;;;;;;;20.60;15.50;;;;;;;8.06;83.54;100244.63;87990;1281;82419;-60
2022/04/26 05:29:20;;;;;;;22.70;15.00;;;;;;;8.06;83.69;100244.40;87976;1281;99499;-60
2022/04/26 05:31:32;;;;;;;19.20;14.90;;;;;;;8.11;83.66;100249.55;87992;1281;87421;-60
2022/04/26 05:33:41;;;;;;;19.60;15.60;;;;;;;8.11;83.66;100251.02;88001;1281;94698;-70
2022/04/26 05:35:51;;;;;;;20.70;15.40;;;;;;;8.13;83.76;100252.48;87959;1281;79505;-70
2022/04/26 05:38:03;;;;;;;19.70;15.10;;;;;;;8.18;83.70;100257.30;88006;1281;83222;-70
2022/04/26 05:40:16;;;;;;;18.00;14.50;;;;;;;8.23;83.85;100254.83;87966;1281;100145;-70
2022/04/26 05:42:25;;;;;;;20.80;14.70;;;;;;;8.25;83.79;100255.91;88000;1281;88041;-70
2022/04/26 05:44:38;;;;;;;17.60;14.60;;;;;;;8.31;83.73;100258.20;87961;1281;94901;-61
2022/04/26 05:46:50;;;;;;;16.80;13.80;;;;;;;8.36;83.81;100255.84;87970;1280;79310;-61
2022/04/26 05:48:58;;;;;;;19.10;15.60;;;;;;;8.37;83.84;100264.34;87963;1281;81938;-59
2022/04/26 05:51:11;;;;;;;19.50;13.30;;;;;;;8.38;83.91;100267.80;87970;1281;100093;-59
2022/04/26 05:53:20;;;;;;;16.10;13.60;;;;;;;8.37;83.84;100269.16;88010;1281;87798;-68
2022/04/26 05:55:30;;;;;;;15.70;12.90;;;;;;;8.40;83.68;100269.70;87952;1281;94523;-68
2022/04/26 05:57:44;;;;;;;14.90;12.80;;;;;;;8.43;83.65;100271.13;87956;1281;80133;-69
2022/04/26 05:59:56;;;;;;;15.00;12.50;;;;;;;8.42;83.58;100272.29;87822;1284;82625;-60
2022/04/26 06:02:06;;;;;;;15.00;13.10;;;;;;;8.48;83.64;100274.64;87878;1281;98170;-59
2022/04/26 06:04:15;;;;;;;15.80;13.20;;;;;;;8.56;83.77;100277.54;87971;1281;87556;-68
2022/04/26 06:06:27;;;;;;;14.60;13.00;;;;;;;8.68;83.71;100275.70;87992;1280;93416;-69
2022/04/26 06:08:36;;;;;;;15.20;12.60;;;;;;;8.81;83.60;100277.75;87989;1281;79024;-60
2022/04/26 06:10:48;;;;;;;12.40;10.70;;;;;;;8.87;83.60;100281.63;87978;1281;81994;-60
2022/04/26 06:12:57;;;;;;;14.40;11.50;;;;;;;8.89;83.46;100282.16;87961;1281;99902;-68
2022/04/26 06:15:10;;;;;;;12.30;10.90;;;;;;;8.87;83.53;100285.61;87969;1281;87948;-69
2022/04/26 06:17:19;;;;;;;12.10;10.70;;;;;;;8.88;83.38;100283.91;87968;1281;95225;-69
2022/04/26 06:19:31;;;;;;;11.90;10.60;;;;;;;8.93;83.62;100284.83;87991;1281;78962;-69
2022/04/26 06:21:43;;;;;;;11.40;10.10;;;;;;;9.00;83.57;100284.96;87977;1280;82731;-69
2022/04/26 06:23:52;;;;;;;13.00;10.40;;;;;;;9.09;83.32;100285.55;87950;1281;99401;-60
2022/04/26 06:26:04;;;;;;;12.10;10.80;;;;;;;9.17;83.34;100288.55;87996;1280;87585;-59
2022/04/26 06:28:14;;;;;;;11.80;10.60;;;;;;;9.20;83.33;100289.30;87972;1280;93821;-61
2022/04/26 06:30:23;;;;;;;12.30;10.10;;;;;;;9.21;83.31;100288.51;87968;1281;79315;-59
2022/04/26 06:32:32;;;;;;;12.30;11.10;;;;;;;9.27;83.40;100295.34;87981;1281;83174;-59
2022/04/26 06:34:44;;;;;;;12.90;11.60;;;;;;;9.41;83.42;100293.66;87956;1281;97519;-67
2022/04/26 06:36:56;;;;;;;11.60;10.10;;;;;;;9.49;83.20;100296.94;87974;1280;88821;-68
2022/04/26 06:39:06;;;;;;;12.50;10.60;;;;;;;9.52;83.05;100300.59;87978;1280;96582;-68
2022/04/26 06:41:15;;;;;;;12.10;9.80;;;;;;;9.53;83.03;100299.11;88001;1280;82496;-70
2022/04/26 06:43:24;;;;;;;12.40;11.10;;;;;;;9.55;82.92;100298.98;87972;1281;82290;-59
2022/04/26 06:45:34;;;;;;;11.90;10.30;;;;;;;9.57;82.73;100297.80;88002;1280;99685;-59
2022/04/26 06:47:49;;;;;;;11.30;10.10;;;;;;;9.56;82.55;100299.23;87975;1281;89424;-58
2022/04/26 06:50:03;;;;;;;12.50;10.20;;;;;;;9.51;82.40;100303.56;87953;1281;94439;-59
2022/04/26 06:52:12;;;;;;;11.80;10.50;;;;;;;9.54;82.38;100306.16;87775;1284;81477;-60
2022/04/26 06:54:21;;;;;;;11.50;10.30;;;;;;;9.51;82.32;100304.10;87878;1281;81400;-59
2022/04/26 06:56:31;;;;;;;11.30;10.10;;;;;;;9.55;82.32;100305.14;87958;1281;99837;-59
2022/04/26 06:58:40;;;;;;;11.40;10.20;;;;;;;9.55;82.22;100308.52;87993;1280;89221;-68
2022/04/26 07:00:48;;;;;;;13.50;11.10;;;;;;;9.52;82.10;100310.30;87985;1280;95524;-69
2022/04/26 07:02:58;;;;;;;12.40;11.00;;;;;;;9.45;82.21;100313.50;87801;1283;79386;-61
2022/04/26 07:05:10;;;;;;;17.00;13.00;;;;;;;9.46;82.33;100317.64;87997;1281;82924;-60
2022/04/26 07:07:24;;;;;;;15.70;13.50;;;;;;;9.53;81.98;100316.54;87995;1280;97912;-61
2022/04/26 07:09:36;;;;;;;15.50;13.80;;;;;;;9.57;82.08;100315.48;87991;1280;87386;-69
2022/04/26 07:11:48;;;;;;;17.00;12.80;;;;;;;9.59;82.06;100321.17;87974;1280;95994;-68
2022/04/26 07:13:58;;;;;;;17.10;14.70;;;;;;;9.59;82.07;100318.24;87961;1281;81847;-60
2022/04/26 07:16:08;;;;;;;17.90;13.80;;;;;;;9.66;82.26;100319.24;87981;1280;80189;-67
2022/04/26 07:18:17;;;;;;;17.30;14.90;;;;;;;9.77;82.29;100322.77;88002;1281;99679;-69
2022/04/26 07:20:28;;;;;;;17.50;14.20;;;;;;;9.86;82.15;100322.11;88003;1280;88864;-71
2022/04/26 07:22:38;;;;;;;17.50;14.80;;;;;;;9.87;82.01;100324.66;87783;1283;94372;-70
2022/04/26 07:24:47;;;;;;;17.50;15.40;;;;;;;10.02;82.07;100327.94;87966;1280;79845;-71
2022/04/26 07:26:59;;;;;;;17.10;14.70;;;;;;;10.06;81.88;100331.15;87987;1280;80783;-68
2022/04/26 07:29:11;;;;;;;19.60;16.40;;;;;;;10.06;81.73;100332.48;87963;1280;99950;-60
2022/04/26 07:31:20;;;;;;;21.10;16.30;;;;;;;10.07;81.51;100336.27;87950;1281;89449;-60
2022/04/26 07:35:57;;;;;;;23.50;16.70;;;;;;;10.19;81.19;100340.65;87966;1280;80890;-61
2022/04/26 07:38:12;;;;;;;22.90;17.30;;;;;;;10.15;81.09;100346.36;88016;1280;82259;-66
2022/04/26 07:40:22;;;;;;;21.90;16.80;;;;;;;10.11;81.16;100346.77;87975;1280;99636;-67
2022/04/26 07:42:32;;;;;;;22.10;16.60;;;;;;;10.13;81.30;100350.28;88000;1280;89161;-68
2022/04/26 07:44:44;;;;;;;21.50;17.40;;;;;;;10.21;81.35;100354.80;87964;1280;95003;-60
2022/04/26 07:47:00;;;;;;;20.50;17.30;;;;;;;10.19;81.19;100356.52;87965;1280;81252;-60
2022/04/26 07:49:13;;;;;;;19.90;17.10;;;;;;;10.21;81.03;100355.42;87834;1284;83622;-61
2022/04/26 07:51:22;;;;;;;18.70;15.60;;;;;;;10.08;81.03;100360.98;87963;1280;100193;-60
2022/04/26 07:53:31;;;;;;;18.70;15.50;;;;;;;10.04;81.06;100365.92;87880;1281;87698;-67
2022/04/26 07:55:43;;;;;;;19.20;15.20;;;;;;;10.06;81.21;100365.94;87875;1281;92237;-68
2022/04/26 07:57:52;;;;;;;18.20;14.70;;;;;;;10.09;81.16;100371.63;87886;1281;82118;-61
2022/04/26 08:00:05;;;;;;;19.60;15.50;;;;;;;10.18;81.19;100370.24;87900;1281;81255;-67
2022/04/26 08:02:14;;;;;;;16.50;14.00;;;;;;;10.34;81.32;100377.40;87903;1281;98652;-68
2022/04/26 08:04:23;;;;;;;13.80;12.20;;;;;;;10.50;80.96;100379.35;87785;1283;88071;-72
2022/04/26 08:06:33;;;;;;;13.40;11.20;;;;;;;10.57;80.86;100380.80;87838;1281;94813;-65
2022/04/26 08:08:42;;;;;;;14.60;12.30;;;;;;;10.51;80.84;100382.52;87875;1281;80660;-66
2022/04/26 08:10:54;;;;;;;17.10;13.10;;;;;;;10.49;80.68;100384.56;87880;1281;82390;-67
2022/04/26 08:13:02;;;;;;;16.60;14.20;;;;;;;10.41;80.57;100386.13;87852;1281;99066;-59
2022/04/26 08:15:18;;;;;;;16.10;12.80;;;;;;;10.32;80.38;100388.84;87863;1281;86485;-64
2022/04/26 08:17:31;;;;;;;15.50;13.20;;;;;;;10.20;80.39;100390.67;87882;1281;93826;-61
2022/04/26 08:19:40;;;;;;;17.50;12.70;;;;;;;10.16;80.47;100395.17;87877;1281;78869;-61
2022/04/26 08:21:51;;;;;;;14.50;12.90;;;;;;;10.12;80.43;100399.05;87910;1281;83234;-61
2022/04/26 08:28:53;;;;;;;13.50;11.80;;;;;;;10.20;80.49;100402.59;87862;1281;94565;-72
2022/04/26 08:31:07;;;;;;;12.80;10.90;;;;;;;10.31;80.49;100404.10;87850;1281;82187;-73
2022/04/26 08:33:19;;;;;;;12.70;11.30;;;;;;;10.28;80.25;100402.31;87896;1281;82108;-72
2022/04/26 08:35:29;;;;;;;13.60;11.70;;;;;;;10.28;80.15;100405.77;87858;1281;98176;-75
2022/04/26 08:37:38;;;;;;;15.30;12.60;;;;;;;10.26;80.27;100407.77;87889;1281;89191;-72
2022/04/26 08:39:48;;;;;;;13.90;11.20;;;;;;;10.38;80.44;100413.14;87858;1281;93830;-70
2022/04/26 08:42:03;;;;;;;15.60;12.40;;;;;;;10.51;80.46;100413.89;87865;1281;80907;-70
2022/04/26 08:44:14;;;;;;;14.10;12.40;;;;;;;10.57;80.19;100419.73;87894;1281;82233;-59
2022/04/26 08:50:59;;;;;;;15.70;12.70;;;;;;;10.61;80.00;100418.92;87891;1281;98059;-59
2022/04/26 08:51:21;;;;;;;13.60;11.80;;;;;;;10.65;79.76;100419.59;87876;1281;95950;-64
2022/04/26 08:53:30;;;;;;;13.50;12.00;;;;;;;10.63;79.66;100422.89;87883;1281;82825;-60
2022/04/26 08:55:48;;;;;;;13.50;11.40;;;;;;;10.68;79.56;100425.07;87896;1281;81524;-61
2022/04/26 08:57:57;;;;;;;14.70;12.10;;;;;;;10.75;79.45;100425.78;87908;1281;99683;-62
2022/04/26 09:00:12;;;;;;;13.40;12.10;;;;;;;10.77;79.35;100426.08;87881;1281;86931;-62
2022/04/26 09:02:25;;;;;;;13.80;12.10;;;;;;;10.80;79.16;100429.95;87881;1281;94743;-61
2022/04/26 09:04:34;;;;;;;15.50;13.40;;;;;;;10.82;78.86;100433.42;87929;1281;79843;-59
2022/04/26 09:06:47;;;;;;;14.60;12.40;;;;;;;10.85;78.54;100434.76;87884;1281;81355;-68
2022/04/26 09:09:08;;;;;;;14.70;13.10;;;;;;;10.87;78.88;100436.03;87891;1281;99190;-69
2022/04/26 09:11:33;;;;;;;14.60;12.50;;;;;;;10.82;78.89;100436.64;87876;1281;89837;-70
2022/04/26 09:13:45;;;;;;;14.40;12.50;;;;;;;10.76;78.84;100441.50;87872;1281;95632;-69
2022/04/26 09:15:57;;;;;;;13.90;12.40;;;;;;;10.88;78.82;100442.02;87906;1281;80040;-58
2022/04/26 09:18:22;;;;;;;15.30;13.30;;;;;;;10.94;78.89;100447.56;87929;1281;81488;-69
2022/04/26 09:20:37;;;;;;;14.30;12.30;;;;;;;11.08;78.79;100448.45;87885;1281;96748;-68
2022/04/26 09:22:58;;;;;;;16.90;12.80;;;;;;;11.30;78.65;100447.14;87889;1281;89155;-67
2022/04/26 09:25:11;;;;;;;14.90;12.80;;;;;;;11.47;78.58;100449.23;87758;1284;94752;-66
2022/04/26 09:27:21;;;;;;;13.60;11.20;;;;;;;11.62;78.03;100454.23;87911;1281;82285;-69
2022/04/26 09:29:30;;;;;;;13.20;11.60;;;;;;;11.67;77.85;100448.61;87901;1281;81488;-58
2022/04/26 09:31:42;;;;;;;14.60;12.20;;;;;;;11.74;77.85;100445.08;87892;1281;100311;-60
2022/04/26 09:33:53;;;;;;;15.00;12.60;;;;;;;11.83;77.82;100448.11;87922;1281;87820;-60
2022/04/26 09:36:06;;;;;;;15.80;13.20;;;;;;;11.84;77.49;100447.29;87880;1281;93099;-61
2022/04/26 09:38:25;;;;;;;14.20;12.60;;;;;;;11.85;77.55;100445.67;87914;1281;79563;-59
2022/04/26 09:40:39;;;;;;;20.40;13.50;;;;;;;12.01;77.64;100447.20;87898;1281;82448;-59
2022/04/26 09:42:50;;;;;;;14.10;12.60;;;;;;;12.15;77.41;100447.67;87812;1282;100394;-60
2022/04/26 09:45:09;;;;;;;14.30;12.70;;;;;;;12.16;77.03;100447.89;87831;1282;87733;-69
2022/04/26 09:47:38;;;;;;;14.40;12.50;;;;;;;12.31;76.91;100445.36;87917;1281;92994;-69
2022/04/26 09:49:51;;;;;;;15.20;13.60;;;;;;;12.61;76.90;100444.65;87891;1281;80652;-69
2022/04/26 09:52:01;;;;;;;14.90;13.30;;;;;;;12.82;76.62;100445.20;87898;1281;81222;-69
2022/04/26 09:54:10;;;;;;;13.60;12.10;;;;;;;12.89;76.52;100447.56;87821;1281;99701;-60
2022/04/26 09:56:24;;;;;;;15.30;13.20;;;;;;;12.91;76.29;100449.54;87752;1284;87041;-59
2022/04/26 09:58:34;;;;;;;17.90;14.70;;;;;;;12.97;75.92;100449.13;87894;1281;96247;-59
2022/04/26 10:00:47;;;;;;;18.30;15.40;;;;;;;12.97;75.67;100450.02;87946;1281;78795;-59
2022/04/26 10:03:02;;;;;;;16.00;14.30;;;;;;;12.85;75.46;100449.50;87779;1284;80331;-69
2022/04/26 10:05:15;;;;;;;13.60;12.20;;;;;;;12.74;75.30;100454.21;87785;1282;98411;-68
2022/04/26 10:07:28;;;;;;;17.10;13.30;;;;;;;12.73;75.26;100452.54;87893;1281;89204;-68
2022/04/26 10:09:37;;;;;;;16.10;13.10;;;;;;;12.74;75.24;100457.39;87899;1281;95062;-61
2022/04/26 10:11:46;;;;;;;15.10;12.80;;;;;;;12.64;74.99;100456.59;87888;1281;78779;-63
2022/04/26 10:13:56;;;;;;;16.20;13.60;;;;;;;12.59;74.98;100458.98;87916;1281;80842;-70
2022/04/26 10:16:08;;;;;;;15.10;13.50;;;;;;;12.67;74.91;100458.70;87917;1281;98416;-67
2022/04/26 10:18:39;;;;;;;17.70;13.90;;;;;;;12.85;74.91;100461.02;87891;1281;88950;-61
2022/04/26 10:20:48;;;;;;;16.10;13.50;;;;;;;12.92;74.70;100464.31;87926;1281;95794;-60
2022/04/26 10:23:03;;;;;;;14.40;12.90;;;;;;;13.02;74.45;100460.38;87902;1281;77936;-69
2022/04/26 10:25:17;;;;;;;14.30;12.80;;;;;;;13.13;74.34;100462.15;87902;1281;81178;-72
2022/04/26 10:27:25;;;;;;;;;;;;;;;13.16;74.23;100463.63;87941;1281;99468;-72
2022/04/26 10:29:46;;;;;;;14.90;13.10;;;;;;;13.18;74.14;100465.85;87900;1281;89057;-70
2022/04/26 10:32:07;;;;;;;15.00;13.40;;;;;;;13.16;73.80;100466.67;87882;1281;94296;-69
2022/04/26 10:34:30;;;;;;;17.20;13.00;;;;;;;13.12;73.72;100470.95;87898;1281;78972;-73
2022/04/26 10:36:40;;;;;;;16.10;13.70;;;;;;;13.20;73.69;100476.08;87902;1281;81487;-71
2022/04/26 10:39:39;;;;;;;15.20;13.50;;;;;;;13.32;73.42;100474.60;87923;1281;100270;-68
2022/04/26 10:41:51;;;;;;;14.70;13.20;;;;;;;13.44;73.05;100473.45;87219;1287;88644;-71
2022/04/26 10:44:33;;;;;;;16.00;14.30;;;;;;;13.47;73.22;100471.96;87646;1281;96134;-60
2022/04/26 10:46:42;;;;;;;16.20;13.40;;;;;;;13.62;73.08;100475.02;87912;1281;78262;-60
2022/04/26 10:48:53;;;;;;;14.70;13.10;;;;;;;13.76;72.85;100474.80;87927;1281;82746;-60
2022/04/26 10:51:36;;;;;;;16.80;13.90;;;;;;;13.76;72.57;100476.64;87909;1281;97871;-59
2022/04/26 10:53:46;;;;;;;13.50;11.90;;;;;;;13.68;72.27;100479.13;87911;1281;86448;-71
2022/04/26 10:56:02;;;;;;;14.80;12.20;;;;;;;13.68;72.24;100481.76;87925;1281;93595;-72
2022/04/26 10:58:11;;;;;;;13.90;12.40;;;;;;;13.69;72.08;100478.25;87874;1281;81622;-71
2022/04/26 11:00:37;;;;;;;16.40;12.90;;;;;;;13.72;71.81;100479.45;87680;1284;82554;-68
2022/04/26 11:02:51;;;;;;;14.60;12.90;;;;;;;13.74;71.87;100483.39;87941;1281;99510;-67
2022/04/26 11:05:05;;;;;;;13.10;11.20;;;;;;;13.71;71.66;100482.85;87944;1281;88802;-58
2022/04/26 11:07:18;;;;;;;13.50;12.10;;;;;;;13.68;71.44;100482.45;87910;1281;93009;-64
2022/04/26 11:09:31;;;;;;;13.50;12.10;;;;;;;13.75;71.35;100480.52;87948;1280;79557;-69
2022/04/26 11:11:53;;;;;;;15.70;13.40;;;;;;;14.03;71.45;100476.59;87939;1281;82685;-68
2022/04/26 11:14:08;;;;;;;12.70;11.20;;;;;;;14.20;71.25;100478.59;87941;1281;98071;-59
2022/04/26 11:16:20;;;;;;;12.90;11.60;;;;;;;14.23;70.99;100477.91;87949;1281;88462;-59
2022/04/26 11:18:29;;;;;;;13.20;11.50;;;;;;;14.42;70.70;100478.15;87931;1281;93590;-73
2022/04/26 11:20:40;;;;;;;13.70;12.00;;;;;;;14.43;70.40;100475.39;87946;1281;80607;-73
2022/04/26 11:22:55;;;;;;;15.00;11.30;;;;;;;14.54;69.95;100479.30;87934;1281;82513;-71
2022/04/26 11:30:13;;;;;;;13.50;11.40;;;;;;;14.91;69.08;100479.05;87588;1281;94921;-60
2022/04/26 11:32:38;;;;;;;12.60;10.90;;;;;;;14.90;68.85;100479.48;87955;1281;80777;-58
2022/04/26 11:34:50;;;;;;;11.70;10.50;;;;;;;14.95;68.85;100478.84;87916;1281;81608;-69
2022/04/26 11:37:03;;;;;;;14.00;11.40;;;;;;;14.94;68.49;100477.62;87914;1281;99629;-69
2022/04/26 11:39:13;;;;;;;13.90;11.00;;;;;;;14.86;67.88;100475.73;87964;1281;88603;-69
2022/04/26 11:41:22;;;;;;;11.10;9.80;;;;;;;14.86;68.07;100475.94;87794;1282;94546;-69
2022/04/26 11:43:33;;;;;;;11.30;9.80;;;;;;;14.90;67.65;100474.95;87916;1281;79635;-59
2022/04/26 11:45:45;;;;;;;10.70;9.60;;;;;;;15.04;67.42;100479.58;87491;1283;423925;-60
2022/04/26 11:47:54;;;;;;;11.60;9.60;;;;;;;15.18;67.10;100477.30;87960;1281;97704;-63
2022/04/26 11:50:32;;;;;;;11.10;9.60;;;;;;;15.28;67.22;100478.37;87940;1281;88127;-65
2022/04/26 11:52:50;;;;;;;11.50;10.10;;;;;;;15.36;66.89;100481.92;87586;1285;96610;-66
2022/04/26 11:54:59;;;;;;;12.00;9.20;;;;;;;15.35;66.17;100477.20;87777;1282;79723;-65
2022/04/26 11:57:09;;;;;;;11.00;9.70;;;;;;;15.28;66.02;100481.55;87940;1281;82402;-65
2022/04/26 11:59:19;;;;;;;12.40;10.50;;;;;;;15.22;66.00;100480.25;87954;1281;98041;-74
2022/04/26 12:01:28;;;;;;;10.60;9.30;;;;;;;15.13;65.93;100476.58;87974;1281;88101;-77
2022/04/26 12:03:43;;;;;;;12.60;9.40;;;;;;;15.00;65.89;100475.38;87987;1281;95036;-77
2022/04/26 12:05:57;;;;;;;10.50;9.40;;;;;;;15.01;65.58;100477.54;87894;1281;79497;-77
2022/04/26 12:08:12;;;;;;;9.70;8.40;;;;;;;14.93;65.24;100478.42;87940;1281;83255;-75
2022/04/26 12:10:34;;;;;;;9.80;8.60;;;;;;;15.02;65.24;100482.19;87944;1281;99220;-78
2022/04/26 12:13:03;;;;;;;11.10;8.40;;;;;;;14.99;64.95;100480.65;87953;1281;86850;-78
2022/04/26 12:15:13;;;;;;;10.40;9.40;;;;;;;15.15;64.72;100480.16;87686;1284;95084;-74
2022/04/26 12:17:29;;;;;;;9.60;8.70;;;;;;;15.25;64.78;100475.58;87923;1281;79986;-69
2022/04/26 12:19:45;;;;;;;11.10;9.30;;;;;;;15.44;64.67;100475.95;87940;1281;81641;-70
2022/04/26 12:21:59;;;;;;;11.80;9.50;;;;;;;15.59;64.31;100475.07;87918;1281;98095;-69
2022/04/26 12:24:21;;;;;;;11.10;9.30;;;;;;;15.80;64.24;100474.91;87959;1281;88872;-61
2022/04/26 12:26:30;;;;;;;11.10;8.80;;;;;;;15.92;64.26;100473.06;87913;1281;95777;-60
2022/04/26 12:28:54;;;;;;;10.10;9.10;;;;;;;15.83;63.81;100476.77;87925;1281;78419;-70
2022/04/26 12:31:23;;;;;;;10.10;8.50;;;;;;;15.66;63.55;100473.26;87934;1281;82427;-72
2022/04/26 12:33:39;;;;;;;10.20;9.10;;;;;;;15.69;62.80;100472.73;87981;1281;98507;-71
2022/04/26 12:36:01;;;;;;;10.90;9.40;;;;;;;15.63;62.61;100469.96;87905;1281;89662;-70
2022/04/26 12:38:14;;;;;;;11.30;9.30;;;;;;;15.66;62.61;100473.56;87942;1281;94736;-69
2022/04/26 12:40:26;;;;;;;12.00;9.30;;;;;;;15.58;62.51;100469.27;87936;1281;78232;-69
2022/04/26 12:42:41;;;;;;;10.30;9.20;;;;;;;15.58;62.40;100467.04;87917;1281;83985;-70
2022/04/26 12:44:56;;;;;;;10.70;9.60;;;;;;;15.56;62.22;100467.63;87911;1281;98949;-61
2022/04/26 12:52:37;;;;;;;11.10;8.40;;;;;;;15.56;61.76;100471.83;87932;1281;78092;-60
2022/04/26 12:54:59;;;;;;;10.00;8.40;;;;;;;15.50;61.54;100469.35;87698;1283;82675;-61
2022/04/26 12:57:12;;;;;;;9.60;7.80;;;;;;;15.49;61.57;100467.60;87787;1282;99504;-60
2022/04/26 12:59:23;;;;;;;9.80;8.70;;;;;;;15.54;61.48;100467.80;87798;1282;89292;-59
2022/04/26 13:01:32;;;;;;;9.50;7.90;;;;;;;15.52;61.56;100468.80;87786;1282;93326;-59
2022/04/26 13:03:46;;;;;;;10.60;8.30;;;;;;;15.56;61.63;100466.21;87793;1282;78318;-72
2022/04/26 13:06:10;;;;;;;7.70;6.90;;;;;;;15.55;61.49;100469.11;87804;1282;82149;-71
2022/04/26 13:08:22;;;;;;;6.80;6.10;;;;;;;15.47;60.74;100469.40;87803;1282;99571;-69
2022/04/26 13:10:31;;;;;;;7.40;6.10;;;;;;;15.48;60.94;100471.24;87832;1282;86290;-72
2022/04/26 13:12:41;;;;;;;8.20;7.30;;;;;;;15.44;60.62;100468.27;87777;1282;93890;-70
2022/04/26 13:14:50;;;;;;;7.60;6.70;;;;;;;15.31;60.56;100467.89;87802;1282;78273;-60
2022/04/26 13:17:03;;;;;;;9.00;7.20;;;;;;;15.24;60.33;100465.00;87795;1282;81833;-61
2022/04/26 13:19:12;;;;;;;8.50;6.80;;;;;;;15.06;60.35;100466.48;87812;1282;99423;-70
2022/04/26 13:21:25;;;;;;;7.80;6.70;;;;;;;15.01;60.39;100463.39;87800;1282;89450;-72
2022/04/26 13:23:36;;;;;;;8.50;7.30;;;;;;;14.99;60.36;100464.66;87781;1282;94756;-61
2022/04/26 13:25:48;;;;;;;8.30;7.40;;;;;;;15.10;60.35;100462.31;87790;1282;77703;-62
2022/04/26 13:28:03;;;;;;;7.70;6.80;;;;;;;15.19;60.19;100464.10;87804;1282;81475;-68
2022/04/26 13:30:16;;;;;;;7.80;7.00;;;;;;;15.31;60.31;100459.30;87806;1282;99767;-69
2022/04/26 13:32:27;;;;;;;9.30;7.10;;;;;;;15.29;59.87;100463.17;87827;1282;87737;-72
2022/04/26 13:34:36;;;;;;;8.00;7.20;;;;;;;15.27;60.10;100464.23;87809;1282;95429;-71
2022/04/26 13:36:46;;;;;;;8.60;6.90;;;;;;;15.38;59.88;100459.27;87818;1280;78004;-68
2022/04/26 13:38:59;;;;;;;9.20;7.70;;;;;;;15.44;59.81;100458.68;87817;1282;82272;-60
2022/04/26 13:41:11;;;;;;;8.20;7.00;;;;;;;15.49;59.49;100462.58;87788;1282;99716;-59
2022/04/26 13:43:24;;;;;;;8.00;7.20;;;;;;;15.51;58.74;100461.44;87800;1282;87811;-61
2022/04/26 13:45:36;;;;;;;9.00;7.40;;;;;;;15.53;59.07;100464.26;87819;1282;93599;-61
2022/04/26 13:47:47;;;;;;;8.10;6.90;;;;;;;15.61;59.23;100462.23;87813;1282;81230;-62
2022/04/26 13:49:56;;;;;;;10.50;7.80;;;;;;;15.55;59.06;100466.64;87813;1282;80849;-63
2022/04/26 13:52:06;;;;;;;7.70;6.90;;;;;;;15.45;59.03;100465.21;87812;1282;100280;-63
2022/04/26 13:54:15;;;;;;;9.50;7.30;;;;;;;15.32;59.04;100464.62;87864;1281;88839;-69
2022/04/26 13:56:24;;;;;;;7.90;7.10;;;;;;;15.35;59.02;100466.15;87947;1281;94383;-70
2022/04/26 13:58:33;;;;;;;8.10;7.30;;;;;;;15.35;59.10;100470.63;87940;1281;80740;-62
2022/04/26 14:00:42;;;;;;;8.40;6.80;;;;;;;15.24;59.09;100470.93;87961;1281;83355;-61
2022/04/26 14:02:54;;;;;;;8.10;6.70;;;;;;;15.09;59.32;100472.02;87953;1281;99124;-72
2022/04/26 14:05:04;;;;;;;8.60;7.50;;;;;;;15.09;59.20;100472.19;87941;1281;88762;-62